Hattiesburg Laurel Regional Airport
KPIB : now visible

Airfield :











YOU CAN JOIN US ON...

 
LOGIN :

Register | Disclaimer

   EN    FR    IT 

 









Legend :    VFR   Marginal VFR   IFR   Intensive IFR   Very Intensive IFR
Visi :
Ceiling :
>= 8 km
>= 3000ft
5 to 8 km
1000 to 3000 ft
1500m to 5 km
500 to 1000 ft
800 to 1500m
200 to 500 ft
< 800m
< 200 ft
Symbols :   Thunderstorms  Fog  Heavy snow  Heavy precipitations  Wind > 20 kt






- Airport Elevation : 298 ft
- IATA code : PIB


KPIB - Hattiesburg Laurel Regional

CURRENT METAR :
  • 270256Z AUTO 18007KT 10SM SCT014 21/19 A3003 RMK AO2 SLP168 T02060189 53016

EXPIRED METARs :
  • 270156Z AUTO 18010KT 10SM CLR 21/19 A3002 RMK AO2 SLP162 T02110189
  • 270056Z AUTO 17013G19KT 10SM CLR 22/19 A2999 RMK AO2 SLP155 T02220189
  • 262356Z AUTO 17011G16KT 10SM BKN041 24/18 A2998 RMK AO2 SLP152 T02390183 10278 20233 55002

TAF KPIB
Valid from the 27 at 00:00 until the 28 at 00:00 UTC


262335Z 2700/2724 18009KT P6SM SCT050
FM270600 19005KT P6SM BKN018
FM270800 19005KT 6SM BR OVC008
FM271100 VRB03KT 3SM BR OVC003
FM271400 18005KT P6SM BKN008
FM271700 18007KT P6SM BKN013
FM272000 17009KT P6SM BKN045
KZHU FIR / North America



MET'MAP, your aeronautical weather chart ! - Copyright ORBIFLY December 2007 - Disclaimer

ORBIFLY MET'MAP TEAM :

Programming & Development : Alexandra Zaïnal
Concept & original design : Baudouin d'Aumeries
Assistance for programming : Marc-Olivier Méhu
Technical & hardware support : Manuel Goepfert

Contact : metmap@orbifly.com




SOURCES & CREDITS :

   NOAA       Earth
Advisory